createdAt,value
2022-11-30T00:00:41.053Z,65.90
2022-11-30T00:03:08.207Z,66.01
2022-11-30T00:05:35.510Z,65.50
2022-11-30T00:08:01.920Z,65.73
2022-11-30T00:10:28.347Z,65.54
2022-11-30T00:12:54.740Z,66.09
2022-11-30T00:15:21.149Z,65.62
2022-11-30T00:17:47.710Z,65.42
2022-11-30T00:20:14.043Z,66.27
2022-11-30T00:22:40.411Z,66.56
2022-11-30T00:25:06.751Z,66.30
2022-11-30T00:27:33.142Z,66.03
2022-11-30T00:29:59.518Z,66.39
2022-11-30T00:32:25.875Z,66.27
2022-11-30T00:34:52.438Z,65.88
2022-11-30T00:37:18.806Z,66.29
2022-11-30T00:39:45.228Z,66.33
2022-11-30T00:42:11.632Z,66.66
2022-11-30T00:44:38.113Z,66.77
2022-11-30T00:47:04.441Z,66.99
2022-11-30T00:49:30.937Z,67.18
2022-11-30T00:51:57.336Z,66.81
2022-11-30T00:54:23.836Z,66.76
2022-11-30T00:56:50.267Z,67.25
2022-11-30T00:59:16.721Z,67.02
2022-11-30T01:01:43.260Z,67.17
2022-11-30T01:04:09.649Z,66.93
2022-11-30T01:06:36.027Z,66.76
2022-11-30T01:09:02.517Z,67.36
2022-11-30T01:11:28.873Z,67.60
2022-11-30T01:13:55.301Z,67.49
2022-11-30T01:16:21.703Z,67.82
2022-11-30T01:18:48.144Z,67.74
2022-11-30T01:21:14.525Z,68.31
2022-11-30T01:23:40.906Z,68.11
2022-11-30T01:26:07.247Z,68.32
2022-11-30T01:28:33.620Z,68.20
2022-11-30T01:31:00.085Z,67.67
2022-11-30T01:33:26.543Z,67.63
2022-11-30T01:35:52.870Z,67.57
2022-11-30T01:38:19.367Z,67.44
2022-11-30T01:40:49.132Z,67.53
2022-11-30T01:43:19.493Z,68.18
2022-11-30T01:45:45.927Z,67.62
2022-11-30T01:48:12.331Z,68.19
2022-11-30T01:50:38.729Z,68.18
2022-11-30T01:53:05.120Z,68.20
2022-11-30T01:55:31.502Z,68.12
2022-11-30T01:57:57.997Z,68.04
2022-11-30T02:00:24.343Z,67.72
2022-11-30T02:02:50.766Z,67.81
2022-11-30T02:05:17.266Z,67.16
2022-11-30T02:07:43.786Z,67.52
2022-11-30T02:10:10.210Z,67.48
2022-11-30T02:12:36.539Z,67.66
2022-11-30T02:15:02.927Z,67.26
2022-11-30T02:17:29.497Z,67.39
2022-11-30T02:19:55.810Z,67.49
2022-11-30T02:22:22.230Z,67.33
2022-11-30T02:24:48.922Z,66.28
2022-11-30T02:27:15.494Z,66.33
2022-11-30T02:29:42.087Z,66.52
2022-11-30T02:32:08.472Z,65.73
2022-11-30T02:34:34.852Z,66.34
2022-11-30T02:37:01.338Z,66.38
2022-11-30T02:39:29.661Z,66.27
2022-11-30T02:41:56.100Z,66.65
2022-11-30T02:44:22.559Z,65.78
2022-11-30T02:46:48.962Z,65.53
2022-11-30T02:49:15.554Z,65.59
2022-11-30T02:51:41.969Z,65.99
2022-11-30T02:54:08.501Z,65.56
2022-11-30T02:56:37.814Z,66.12
2022-11-30T02:59:04.144Z,65.75
2022-11-30T03:01:30.575Z,66.38
2022-11-30T03:03:56.930Z,66.30
2022-11-30T03:06:23.380Z,66.46
2022-11-30T03:08:49.781Z,66.64
2022-11-30T03:11:16.244Z,66.45
2022-11-30T03:16:23.058Z,66.11
2022-11-30T03:18:49.542Z,66.26
2022-11-30T03:21:16.085Z,66.65
2022-11-30T03:23:42.407Z,66.35
2022-11-30T03:26:09.868Z,65.51
2022-11-30T03:28:36.258Z,65.89
2022-11-30T03:31:02.652Z,65.97
2022-11-30T03:33:29.140Z,65.61
2022-11-30T03:35:55.502Z,66.34
2022-11-30T03:38:21.843Z,66.35
2022-11-30T03:40:48.215Z,66.58
2022-11-30T03:43:14.593Z,66.58
2022-11-30T03:45:40.938Z,66.88
2022-11-30T03:48:07.253Z,67.39
2022-11-30T03:50:33.568Z,67.39
2022-11-30T03:52:59.887Z,66.96
2022-11-30T03:55:26.234Z,66.57
2022-11-30T03:57:52.634Z,66.50
2022-11-30T04:00:18.981Z,66.66
2022-11-30T04:02:45.437Z,67.62
2022-11-30T04:05:11.862Z,67.33
2022-11-30T04:07:38.698Z,67.84
2022-11-30T04:10:08.443Z,67.73
2022-11-30T04:12:35.228Z,67.23
2022-11-30T04:15:01.681Z,66.66
2022-11-30T04:17:28.255Z,67.10
2022-11-30T04:19:54.633Z,67.62
2022-11-30T04:22:20.979Z,67.76
2022-11-30T04:24:47.590Z,66.37
2022-11-30T04:27:14.125Z,66.07
2022-11-30T04:29:40.538Z,65.71
2022-11-30T04:32:06.936Z,65.41
2022-11-30T04:34:33.269Z,66.21
2022-11-30T04:37:00.565Z,66.77
2022-11-30T04:39:27.116Z,66.85
2022-11-30T04:41:53.452Z,66.66
2022-11-30T04:44:22.611Z,67.47
2022-11-30T04:46:48.967Z,67.33
2022-11-30T04:49:15.345Z,67.05
2022-11-30T04:51:41.677Z,67.58
2022-11-30T04:54:08.019Z,67.99
2022-11-30T04:56:34.504Z,68.18
2022-11-30T04:59:01.033Z,68.18
2022-11-30T05:01:27.457Z,67.65
2022-11-30T05:03:54.110Z,68.09
2022-11-30T05:06:20.537Z,67.57
2022-11-30T05:08:46.893Z,67.96
2022-11-30T05:11:13.228Z,67.63
2022-11-30T05:13:39.575Z,67.50
2022-11-30T05:16:05.976Z,67.98
2022-11-30T05:18:32.342Z,67.98
2022-11-30T05:20:58.789Z,68.14
2022-11-30T05:23:28.418Z,68.38
2022-11-30T05:25:54.809Z,68.53
2022-11-30T05:28:21.249Z,68.66
2022-11-30T05:30:47.611Z,68.13
2022-11-30T05:33:14.039Z,67.83
2022-11-30T05:35:40.433Z,68.15
2022-11-30T05:38:06.990Z,68.70
2022-11-30T05:40:33.411Z,68.74
2022-11-30T05:42:59.808Z,68.52
2022-11-30T05:45:26.400Z,66.94
2022-11-30T05:47:52.924Z,66.26
2022-11-30T05:50:19.295Z,65.24
2022-11-30T05:52:45.740Z,65.47
2022-11-30T05:55:12.137Z,65.83
2022-11-30T05:57:38.737Z,65.54
2022-11-30T06:00:05.247Z,64.57
2022-11-30T06:02:31.757Z,65.79
2022-11-30T06:04:58.228Z,65.48
2022-11-30T06:07:24.663Z,65.43
2022-11-30T06:09:51.093Z,65.72
2022-11-30T06:12:17.449Z,66.28
2022-11-30T06:14:43.979Z,65.14
2022-11-30T06:17:10.452Z,65.39
2022-11-30T06:19:36.862Z,65.26
2022-11-30T06:22:03.320Z,65.38
2022-11-30T06:24:29.636Z,65.19
2022-11-30T06:26:55.984Z,64.69
2022-11-30T06:29:22.315Z,65.43
2022-11-30T06:31:48.743Z,64.96
2022-11-30T06:34:15.178Z,64.40
2022-11-30T06:36:41.486Z,64.98
2022-11-30T06:39:07.818Z,63.96
2022-11-30T06:41:34.153Z,64.07
2022-11-30T06:44:00.483Z,64.07
2022-11-30T06:46:26.817Z,64.35
2022-11-30T06:48:53.189Z,64.62
2022-11-30T06:51:19.584Z,65.07
2022-11-30T06:53:45.928Z,65.53
2022-11-30T06:56:12.247Z,66.30
2022-11-30T06:58:38.639Z,66.21
2022-11-30T07:01:05.076Z,66.60
2022-11-30T07:03:31.431Z,66.12
2022-11-30T07:05:57.775Z,66.23
2022-11-30T07:08:24.155Z,65.92
2022-11-30T07:10:50.542Z,65.41
2022-11-30T07:13:16.895Z,65.67
2022-11-30T07:15:43.254Z,66.96
2022-11-30T07:18:09.606Z,66.83
2022-11-30T07:20:35.951Z,67.07
2022-11-30T07:31:28.393Z,67.80
2022-11-30T07:33:54.866Z,67.24
2022-11-30T07:36:21.298Z,67.31
2022-11-30T07:38:47.763Z,66.92
2022-11-30T07:41:26.008Z,67.11
2022-11-30T07:43:52.447Z,65.98
2022-11-30T07:46:18.898Z,65.83
2022-11-30T07:48:45.340Z,65.58
2022-11-30T07:51:11.792Z,65.03
2022-11-30T07:53:38.199Z,64.90
2022-11-30T07:56:04.597Z,65.46
2022-11-30T07:58:33.272Z,65.67
2022-11-30T08:00:59.772Z,65.38
2022-11-30T08:03:26.288Z,65.71
2022-11-30T08:05:52.705Z,65.89
2022-11-30T08:08:19.144Z,65.61
2022-11-30T08:10:46.594Z,65.71
2022-11-30T08:13:13.004Z,66.53
2022-11-30T08:15:39.403Z,66.33
2022-11-30T08:18:05.846Z,67.25
2022-11-30T08:20:32.308Z,66.82
2022-11-30T08:23:00.082Z,65.79
2022-11-30T08:25:26.511Z,65.44
2022-11-30T08:27:52.957Z,66.33
2022-11-30T08:30:19.417Z,65.44
2022-11-30T08:32:45.840Z,66.10
2022-11-30T08:35:12.345Z,66.31
2022-11-30T08:37:38.843Z,66.96
2022-11-30T08:40:05.243Z,66.68
2022-11-30T08:42:31.765Z,66.93
2022-11-30T08:44:58.412Z,66.83
2022-11-30T08:47:25.247Z,67.35
2022-11-30T08:49:51.926Z,66.95
2022-11-30T08:52:18.973Z,67.39
2022-11-30T08:54:53.267Z,67.49
2022-11-30T08:57:20.745Z,67.60
2022-11-30T09:02:33.614Z,67.13
2022-11-30T09:05:00.187Z,66.85
2022-11-30T09:07:26.681Z,66.83
2022-11-30T09:09:53.172Z,66.52
2022-11-30T09:12:19.591Z,66.40
2022-11-30T09:14:49.650Z,66.14
2022-11-30T09:17:19.044Z,65.87
2022-11-30T09:19:47.662Z,66.05
2022-11-30T09:22:14.114Z,65.51
2022-11-30T09:24:42.587Z,65.63
2022-11-30T09:27:08.993Z,65.36
2022-11-30T09:29:35.442Z,65.31
2022-11-30T09:32:01.839Z,65.71
2022-11-30T09:34:28.252Z,66.06
2022-11-30T09:36:54.631Z,66.74
2022-11-30T09:39:21.075Z,67.00
2022-11-30T09:41:47.507Z,67.29
2022-11-30T09:44:13.958Z,68.02
2022-11-30T09:46:40.485Z,67.81
2022-11-30T09:49:06.934Z,66.83
2022-11-30T09:51:33.345Z,68.12
2022-11-30T09:53:59.780Z,67.96
2022-11-30T09:56:27.213Z,67.04
2022-11-30T09:58:53.589Z,66.85
2022-11-30T10:01:20.034Z,66.93
2022-11-30T10:03:46.559Z,66.65
2022-11-30T10:06:12.963Z,66.02
2022-11-30T10:08:39.354Z,65.39
2022-11-30T10:11:09.479Z,64.82
2022-11-30T10:13:35.815Z,64.38
2022-11-30T10:16:02.234Z,63.83
2022-11-30T10:18:28.645Z,64.21
2022-11-30T10:20:55.112Z,64.19
2022-11-30T10:23:21.537Z,64.08
2022-11-30T10:25:47.879Z,64.36
2022-11-30T10:28:44.990Z,64.25
2022-11-30T10:31:00.792Z,64.33
2022-11-30T10:33:27.345Z,64.36
2022-11-30T10:35:53.783Z,63.94
2022-11-30T10:41:03.480Z,62.87
2022-11-30T10:43:29.973Z,62.54
2022-11-30T10:45:56.508Z,61.50
2022-11-30T10:48:25.966Z,61.90
2022-11-30T10:50:52.318Z,62.20
2022-11-30T10:53:18.773Z,61.24
2022-11-30T10:55:45.210Z,62.02
2022-11-30T10:58:11.667Z,62.02
2022-11-30T11:00:38.138Z,61.81
2022-11-30T11:03:04.622Z,62.14
2022-11-30T11:05:31.036Z,62.02
2022-11-30T11:08:02.730Z,62.23
2022-11-30T11:10:32.583Z,62.03
2022-11-30T11:12:58.974Z,62.58
2022-11-30T11:15:25.392Z,62.24
2022-11-30T11:17:51.853Z,62.84
2022-11-30T11:20:18.247Z,62.50
2022-11-30T11:22:44.660Z,61.66
2022-11-30T11:25:11.040Z,61.24
2022-11-30T11:27:42.838Z,61.15
2022-11-30T11:30:11.148Z,60.82
2022-11-30T11:32:37.601Z,60.42
2022-11-30T11:35:04.202Z,60.77
2022-11-30T11:37:30.685Z,60.47
2022-11-30T11:39:57.015Z,60.83
2022-11-30T11:42:23.672Z,61.14
2022-11-30T11:44:53.349Z,60.96
2022-11-30T11:47:19.791Z,61.10
2022-11-30T11:49:46.528Z,61.62
2022-11-30T11:52:13.197Z,61.18
2022-11-30T11:54:39.719Z,60.92
2022-11-30T11:57:06.119Z,60.61
2022-11-30T11:59:36.665Z,60.81
2022-11-30T12:02:03.466Z,59.93
2022-11-30T12:04:30.132Z,59.84
2022-11-30T12:06:56.735Z,58.84
2022-11-30T12:09:23.126Z,56.85
2022-11-30T12:11:49.518Z,57.72
2022-11-30T12:14:15.935Z,57.81
2022-11-30T12:16:42.292Z,57.64
2022-11-30T12:19:08.647Z,57.12
2022-11-30T12:21:35.074Z,56.98
2022-11-30T12:24:01.488Z,56.27
2022-11-30T12:26:28.062Z,56.61
2022-11-30T12:28:54.452Z,56.06
2022-11-30T12:31:20.872Z,57.50
2022-11-30T12:33:47.352Z,57.32
2022-11-30T12:36:13.727Z,58.16
2022-11-30T12:38:40.180Z,58.94
2022-11-30T12:41:06.590Z,58.54
2022-11-30T12:43:33.036Z,58.42
2022-11-30T12:45:59.495Z,58.10
2022-11-30T12:48:25.917Z,57.86
2022-11-30T12:50:52.345Z,57.79
2022-11-30T12:53:18.693Z,57.70
2022-11-30T12:55:45.073Z,56.98
2022-11-30T12:58:11.615Z,56.19
2022-11-30T13:00:37.988Z,56.14
2022-11-30T13:03:04.419Z,56.06
2022-11-30T13:05:30.821Z,56.15
2022-11-30T13:07:57.273Z,56.14
2022-11-30T13:10:23.689Z,56.62
2022-11-30T13:12:50.040Z,57.29
2022-11-30T13:15:16.450Z,56.92
2022-11-30T13:17:42.866Z,56.89
2022-11-30T13:20:09.369Z,56.82
2022-11-30T13:22:35.725Z,56.32
2022-11-30T13:25:02.088Z,56.19
2022-11-30T13:27:28.516Z,56.86
2022-11-30T13:29:58.502Z,56.49
2022-11-30T13:35:11.270Z,56.43
2022-11-30T13:37:37.668Z,56.79
2022-11-30T13:40:04.010Z,57.10
2022-11-30T13:42:30.391Z,57.54
2022-11-30T13:44:56.822Z,56.41
2022-11-30T13:47:23.248Z,56.55
2022-11-30T13:49:49.648Z,55.97
2022-11-30T13:52:24.056Z,55.50
2022-11-30T13:54:51.271Z,55.23
2022-11-30T13:57:18.634Z,55.16
2022-11-30T13:59:44.971Z,55.46
2022-11-30T14:07:46.319Z,56.11
2022-11-30T14:10:12.929Z,55.59
2022-11-30T14:12:39.388Z,55.50
2022-11-30T14:15:09.077Z,55.94
2022-11-30T14:17:35.422Z,53.48
2022-11-30T14:20:01.817Z,53.97
2022-11-30T14:22:28.152Z,53.32
2022-11-30T14:24:54.552Z,54.20
2022-11-30T14:27:20.942Z,54.09
2022-11-30T14:29:47.535Z,53.91
2022-11-30T14:32:14.345Z,53.06
2022-11-30T14:34:40.733Z,53.14
2022-11-30T14:37:07.058Z,53.32
2022-11-30T14:39:33.456Z,53.18
2022-11-30T14:41:59.818Z,54.93
2022-11-30T14:44:28.580Z,54.40
2022-11-30T14:46:55.037Z,53.68
2022-11-30T14:54:57.830Z,55.51
2022-11-30T14:57:24.396Z,56.05
2022-11-30T14:59:50.946Z,55.79
2022-11-30T15:02:17.526Z,55.59
2022-11-30T15:04:44.004Z,55.97
2022-11-30T15:07:10.444Z,57.32
2022-11-30T15:09:36.803Z,58.18
2022-11-30T15:12:03.200Z,58.44
2022-11-30T15:14:30.793Z,57.54
2022-11-30T15:16:57.346Z,57.05
2022-11-30T15:19:23.815Z,57.84
2022-11-30T15:21:50.270Z,57.52
2022-11-30T15:24:16.693Z,57.67
2022-11-30T15:26:45.937Z,57.96
2022-11-30T15:29:12.303Z,58.63
2022-11-30T15:31:38.816Z,58.77
2022-11-30T15:34:05.270Z,59.27
2022-11-30T15:36:33.933Z,59.05
2022-11-30T15:39:00.656Z,59.29
2022-11-30T15:41:27.142Z,59.24
2022-11-30T15:43:53.630Z,58.93
2022-11-30T15:46:20.183Z,58.63
2022-11-30T15:48:46.653Z,58.14
2022-11-30T15:51:13.133Z,58.65
2022-11-30T15:53:40.514Z,57.80
2022-11-30T15:56:06.892Z,57.76
2022-11-30T15:58:33.372Z,58.02
2022-11-30T16:01:02.253Z,58.50
2022-11-30T16:03:28.679Z,57.90
2022-11-30T16:05:55.047Z,57.70
2022-11-30T16:08:21.562Z,58.52
2022-11-30T16:10:47.926Z,59.09
2022-11-30T16:13:14.291Z,58.37
2022-11-30T16:15:40.728Z,57.13
2022-11-30T16:18:07.268Z,56.92
2022-11-30T16:20:42.741Z,57.15
2022-11-30T16:23:11.429Z,57.64
2022-11-30T16:25:37.898Z,57.81
2022-11-30T16:28:04.363Z,57.85
2022-11-30T16:30:30.798Z,58.47
2022-11-30T16:32:57.152Z,58.10
2022-11-30T16:35:23.546Z,58.01
2022-11-30T16:37:49.935Z,57.36
2022-11-30T16:40:16.375Z,57.11
2022-11-30T16:42:42.818Z,56.92
2022-11-30T16:45:09.345Z,57.43
2022-11-30T16:47:35.695Z,58.79
2022-11-30T16:50:02.091Z,58.85
2022-11-30T16:52:28.559Z,59.01
2022-11-30T16:54:54.930Z,58.79
2022-11-30T16:57:21.492Z,58.25
2022-11-30T16:59:48.132Z,59.17
2022-11-30T17:02:20.225Z,59.18
2022-11-30T17:04:46.898Z,59.41
2022-11-30T17:07:15.466Z,59.71
2022-11-30T17:09:41.884Z,58.03
2022-11-30T17:12:08.337Z,58.23
2022-11-30T17:14:34.759Z,57.12
2022-11-30T17:17:01.145Z,55.62
2022-11-30T17:19:27.542Z,56.89
2022-11-30T17:21:53.958Z,57.25
2022-11-30T17:24:20.394Z,57.36
2022-11-30T17:26:46.847Z,57.53
2022-11-30T17:29:13.246Z,58.10
2022-11-30T17:31:42.345Z,59.08
2022-11-30T17:34:08.776Z,58.79
2022-11-30T17:36:35.212Z,59.06
2022-11-30T17:39:01.623Z,59.96
2022-11-30T17:41:27.984Z,60.22
2022-11-30T17:43:54.517Z,60.43
2022-11-30T17:46:21.078Z,60.22
2022-11-30T17:48:47.515Z,60.17
2022-11-30T17:51:13.999Z,59.99
2022-11-30T17:53:40.491Z,60.49
2022-11-30T17:56:07.159Z,60.72
2022-11-30T17:58:36.109Z,59.93
2022-11-30T18:01:04.316Z,59.60
2022-11-30T18:03:30.725Z,59.30
2022-11-30T18:05:57.120Z,59.46
2022-11-30T18:08:23.724Z,58.84
2022-11-30T18:10:50.103Z,59.23
2022-11-30T18:13:16.427Z,59.20
2022-11-30T18:15:42.876Z,59.14
2022-11-30T18:18:09.634Z,59.02
2022-11-30T18:20:36.095Z,60.09
2022-11-30T18:23:02.457Z,59.12
2022-11-30T18:25:28.822Z,59.33
2022-11-30T18:27:55.191Z,59.51
2022-11-30T18:30:21.577Z,59.66
2022-11-30T18:32:47.908Z,59.98
2022-11-30T18:35:14.260Z,59.83
2022-11-30T18:37:40.613Z,59.82
2022-11-30T18:40:07.213Z,59.74
2022-11-30T18:42:33.606Z,60.51
2022-11-30T18:44:59.955Z,60.45
2022-11-30T18:47:26.527Z,60.30
2022-11-30T18:49:52.973Z,60.92
2022-11-30T18:52:19.363Z,60.59
2022-11-30T18:54:45.885Z,60.99
2022-11-30T18:57:14.826Z,61.08
2022-11-30T18:59:41.331Z,61.11
2022-11-30T19:02:07.740Z,61.05
2022-11-30T19:04:34.156Z,60.82
2022-11-30T19:07:00.604Z,60.73
2022-11-30T19:09:26.959Z,60.84
2022-11-30T19:11:53.510Z,61.04
2022-11-30T19:14:20.110Z,61.32
2022-11-30T19:16:46.619Z,61.13
2022-11-30T19:19:13.111Z,61.52
2022-11-30T19:21:39.562Z,60.79
2022-11-30T19:24:05.970Z,60.77
2022-11-30T19:26:33.022Z,60.57
2022-11-30T19:28:59.980Z,60.66
2022-11-30T19:31:31.277Z,60.42
2022-11-30T19:33:57.887Z,60.37
2022-11-30T19:36:24.296Z,60.76
2022-11-30T19:38:50.727Z,60.71
2022-11-30T19:41:17.177Z,61.09
2022-11-30T19:43:47.734Z,60.77
2022-11-30T19:46:19.975Z,60.68
2022-11-30T19:48:46.466Z,60.27
2022-11-30T19:51:17.626Z,60.71
2022-11-30T19:53:44.563Z,60.44
2022-11-30T19:56:12.177Z,60.99
2022-11-30T19:58:38.583Z,60.77
2022-11-30T20:01:05.127Z,60.20
2022-11-30T20:03:31.668Z,61.26
2022-11-30T20:06:08.449Z,60.85
2022-11-30T20:08:34.940Z,60.83
2022-11-30T20:11:01.488Z,60.22
2022-11-30T20:13:27.888Z,60.23
2022-11-30T20:15:54.332Z,60.11
2022-11-30T20:18:20.829Z,59.92
2022-11-30T20:20:47.230Z,60.01
2022-11-30T20:23:13.587Z,60.12
2022-11-30T20:25:40.140Z,60.49
2022-11-30T20:28:12.438Z,60.47
2022-11-30T20:30:39.191Z,59.85
2022-11-30T20:33:05.650Z,60.27
2022-11-30T20:35:32.220Z,60.45
2022-11-30T20:37:58.698Z,60.26
2022-11-30T20:40:25.169Z,59.97
2022-11-30T20:42:54.376Z,59.98
2022-11-30T20:45:20.962Z,59.60
2022-11-30T20:47:47.367Z,59.83
2022-11-30T20:50:13.778Z,60.10
2022-11-30T20:52:40.153Z,60.04
2022-11-30T20:55:06.538Z,60.29
2022-11-30T20:57:32.904Z,60.00
2022-11-30T20:59:59.273Z,59.57
2022-11-30T21:02:25.756Z,59.66
2022-11-30T21:04:52.176Z,59.60
2022-11-30T21:07:18.633Z,60.51
2022-11-30T21:09:45.314Z,60.64
2022-11-30T21:12:11.645Z,60.75
2022-11-30T21:14:38.167Z,60.47
2022-11-30T21:17:04.607Z,60.42
2022-11-30T21:19:31.042Z,60.30
2022-11-30T21:21:57.500Z,60.11
2022-11-30T21:24:23.875Z,60.64
2022-11-30T21:26:50.284Z,60.90
2022-11-30T21:29:19.502Z,60.27
2022-11-30T21:31:46.069Z,60.13
2022-11-30T21:34:12.603Z,60.12
2022-11-30T21:36:39.139Z,59.81
2022-11-30T21:39:06.804Z,60.46
2022-11-30T21:41:33.503Z,60.08
2022-11-30T21:44:02.721Z,60.10
2022-11-30T21:46:29.148Z,59.80
2022-11-30T21:48:55.652Z,60.65
2022-11-30T21:51:22.399Z,60.48
2022-11-30T21:53:48.792Z,60.21
2022-11-30T21:56:18.029Z,60.48
2022-11-30T21:58:44.456Z,60.33
2022-11-30T22:01:10.805Z,60.13
2022-11-30T22:03:37.309Z,60.77
2022-11-30T22:11:29.539Z,60.80
2022-11-30T22:13:55.932Z,60.12
2022-11-30T22:16:22.585Z,59.81
2022-11-30T22:18:49.041Z,60.05
2022-11-30T22:21:15.549Z,60.63
2022-11-30T22:23:42.004Z,60.21
2022-11-30T22:26:08.403Z,60.13
2022-11-30T22:28:34.805Z,60.25
2022-11-30T22:31:01.344Z,60.50
2022-11-30T22:33:27.885Z,60.50
2022-11-30T22:35:54.646Z,60.58
2022-11-30T22:38:21.956Z,60.81
2022-11-30T22:40:48.417Z,60.39
2022-11-30T22:43:14.951Z,61.18
2022-11-30T22:45:41.367Z,61.00
2022-11-30T22:48:07.798Z,61.09
2022-11-30T22:50:34.257Z,61.53
2022-11-30T22:53:03.289Z,61.34
2022-11-30T22:55:30.220Z,61.66
2022-11-30T22:57:56.741Z,61.13
2022-11-30T23:00:23.184Z,61.91
2022-11-30T23:02:49.710Z,62.02
2022-11-30T23:05:16.241Z,61.77
2022-11-30T23:07:45.616Z,61.74
2022-11-30T23:10:13.876Z,61.09
2022-11-30T23:12:58.925Z,61.12
2022-11-30T23:15:26.276Z,61.39
2022-11-30T23:17:52.900Z,60.54
2022-11-30T23:20:19.330Z,60.46
2022-11-30T23:22:50.804Z,60.72
2022-11-30T23:25:17.196Z,60.37
2022-11-30T23:27:52.045Z,60.56
2022-11-30T23:30:18.516Z,60.04
2022-11-30T23:32:47.311Z,60.38
2022-11-30T23:35:15.712Z,60.23
2022-11-30T23:37:42.162Z,60.94
2022-11-30T23:40:08.638Z,60.84
2022-11-30T23:42:35.078Z,60.98
2022-11-30T23:45:01.508Z,61.13
2022-11-30T23:47:27.890Z,61.17
2022-11-30T23:49:54.380Z,61.26
2022-11-30T23:52:20.752Z,60.90
2022-11-30T23:54:49.031Z,61.19
2022-11-30T23:57:15.407Z,60.54
2022-11-30T23:59:41.765Z,61.11
